createdAt,value
2017-11-14T00:01:01.924Z,101685.12
2017-11-14T00:03:37.060Z,101686.57
2017-11-14T00:06:11.957Z,101689.36
2017-11-14T00:08:46.837Z,101688.66
2017-11-14T00:11:22.041Z,101699.95
2017-11-14T00:13:58.014Z,101700.99
2017-11-14T00:16:33.082Z,101687.20
2017-11-14T00:19:07.561Z,101696.14
2017-11-14T00:21:42.084Z,101694.03
2017-11-14T00:24:16.878Z,101694.18
2017-11-14T00:26:51.560Z,101697.08
2017-11-14T00:29:26.348Z,101693.44
2017-11-14T00:32:01.068Z,101697.41
2017-11-14T00:34:35.814Z,101697.00
2017-11-14T00:37:11.381Z,101691.73
2017-11-14T00:39:46.949Z,101670.27
2017-11-14T00:42:21.853Z,101692.30
2017-11-14T00:44:56.680Z,101698.34
2017-11-14T00:47:31.413Z,101714.13
2017-11-14T00:50:06.189Z,101705.97
2017-11-14T00:52:41.148Z,101708.52
2017-11-14T00:55:15.887Z,101704.20
2017-11-14T00:57:50.625Z,101699.31
2017-11-14T01:00:25.472Z,101700.31
2017-11-14T01:03:00.209Z,101696.89
2017-11-14T01:05:35.661Z,101706.86
2017-11-14T01:08:10.413Z,101718.90
2017-11-14T01:10:46.056Z,101716.16
2017-11-14T01:13:20.964Z,101720.02
2017-11-14T01:15:56.685Z,101715.50
2017-11-14T01:18:32.353Z,101725.15
2017-11-14T01:21:07.200Z,101717.59
2017-11-14T01:23:42.361Z,101722.07
2017-11-14T01:26:17.693Z,101717.21
2017-11-14T01:28:52.836Z,101717.73
2017-11-14T01:31:27.832Z,101710.31
2017-11-14T01:34:02.901Z,101701.63
2017-11-14T01:36:37.807Z,101710.86
2017-11-14T01:39:12.492Z,101704.70
2017-11-14T01:41:48.196Z,101700.77
2017-11-14T01:44:23.234Z,101706.11
2017-11-14T01:46:57.902Z,101714.80
2017-11-14T01:49:33.547Z,101709.02
2017-11-14T01:52:08.344Z,101710.87
2017-11-14T01:54:43.891Z,101712.20
2017-11-14T01:57:18.273Z,101715.34
2017-11-14T01:59:53.012Z,101718.91
2017-11-14T02:02:27.901Z,101721.54
2017-11-14T02:05:02.810Z,101721.61
2017-11-14T02:07:38.025Z,101720.72
2017-11-14T02:10:12.652Z,101715.05
2017-11-14T02:12:47.603Z,101715.18
2017-11-14T02:15:22.001Z,101713.58
2017-11-14T02:17:57.893Z,101718.84
2017-11-14T02:20:33.188Z,101722.50
2017-11-14T02:23:08.093Z,101727.42
2017-11-14T02:25:42.810Z,101726.60
2017-11-14T02:28:17.406Z,101723.11
2017-11-14T02:30:51.600Z,101722.13
2017-11-14T02:33:26.340Z,101728.79
2017-11-14T02:36:00.431Z,101733.34
2017-11-14T02:38:35.146Z,101726.77
2017-11-14T02:41:10.035Z,101726.42
2017-11-14T02:43:44.617Z,101726.46
2017-11-14T02:46:19.566Z,101734.94
2017-11-14T02:48:54.182Z,101733.91
2017-11-14T02:51:28.848Z,101736.13
2017-11-14T02:54:03.566Z,101731.95
2017-11-14T02:56:38.605Z,101740.20
2017-11-14T02:59:13.563Z,101736.57
2017-11-14T03:01:48.371Z,101738.80
2017-11-14T03:04:22.902Z,101740.26
2017-11-14T03:06:57.640Z,101738.42
2017-11-14T03:09:32.033Z,101745.11
2017-11-14T03:12:06.629Z,101742.96
2017-11-14T03:14:41.632Z,101748.70
2017-11-14T03:17:15.869Z,101747.72
2017-11-14T03:19:50.530Z,101736.98
2017-11-14T03:22:25.708Z,101735.66
2017-11-14T03:25:00.617Z,101742.22
2017-11-14T03:27:35.325Z,101740.31
2017-11-14T03:30:10.866Z,101737.67
2017-11-14T03:32:45.937Z,101735.75
2017-11-14T03:35:20.633Z,101733.28
2017-11-14T03:37:55.436Z,101727.19
2017-11-14T03:40:30.109Z,101701.57
2017-11-14T03:43:04.945Z,101730.16
2017-11-14T03:45:39.896Z,101732.03
2017-11-14T03:48:14.273Z,101736.09
2017-11-14T03:50:49.301Z,101738.00
2017-11-14T03:53:24.228Z,101739.42
2017-11-14T03:55:59.633Z,101734.13
2017-11-14T03:58:35.056Z,101728.73
2017-11-14T04:01:09.677Z,101723.53
2017-11-14T04:03:44.709Z,101736.86
2017-11-14T04:06:18.965Z,101743.11
2017-11-14T04:08:53.817Z,101737.27
2017-11-14T04:11:28.733Z,101736.41
2017-11-14T04:14:03.237Z,101741.80
2017-11-14T04:16:38.475Z,101744.16
2017-11-14T04:19:13.257Z,101738.31
2017-11-14T04:21:48.066Z,101735.14
2017-11-14T04:24:23.980Z,101736.60
2017-11-14T04:26:58.768Z,101736.34
2017-11-14T04:29:33.761Z,101733.14
2017-11-14T04:32:08.709Z,101737.49
2017-11-14T04:34:43.517Z,101729.41
2017-11-14T04:37:18.361Z,101728.95
2017-11-14T04:39:53.127Z,101728.98
2017-11-14T04:42:27.473Z,101727.05
2017-11-14T04:45:02.457Z,101721.88
2017-11-14T04:47:37.180Z,101728.67
2017-11-14T04:50:12.017Z,101719.22
2017-11-14T04:52:46.770Z,101717.53
2017-11-14T04:55:21.696Z,101718.17
2017-11-14T04:57:56.740Z,101720.08
2017-11-14T05:00:32.548Z,101723.75
2017-11-14T05:03:06.928Z,101733.84
2017-11-14T05:05:41.904Z,101733.30
2017-11-14T05:08:16.856Z,101731.75
2017-11-14T05:10:51.354Z,101734.80
2017-11-14T05:13:26.413Z,101733.30
2017-11-14T05:16:01.144Z,101729.88
2017-11-14T05:18:35.965Z,101724.96
2017-11-14T05:21:10.199Z,101724.27
2017-11-14T05:23:45.168Z,101731.17
2017-11-14T05:26:20.058Z,101732.25
2017-11-14T05:28:54.736Z,101732.50
2017-11-14T05:31:29.533Z,101736.03
2017-11-14T05:34:05.659Z,101740.41
2017-11-14T05:36:40.097Z,101737.08
2017-11-14T05:39:14.936Z,101747.80
2017-11-14T05:41:49.857Z,101748.30
2017-11-14T05:44:24.657Z,101748.23
2017-11-14T05:46:59.328Z,101749.81
2017-11-14T05:49:34.109Z,101745.09
2017-11-14T05:52:08.961Z,101753.41
2017-11-14T05:54:44.041Z,101753.40
2017-11-14T05:57:18.848Z,101746.98
2017-11-14T05:59:53.787Z,101750.75
2017-11-14T06:02:28.906Z,101745.30
2017-11-14T06:05:03.819Z,101743.27
2017-11-14T06:07:38.780Z,101747.91
2017-11-14T06:10:13.630Z,101750.94
2017-11-14T06:12:49.281Z,101748.72
2017-11-14T06:15:24.003Z,101750.19
2017-11-14T06:17:58.841Z,101753.95
2017-11-14T06:20:34.177Z,101754.66
2017-11-14T06:23:08.928Z,101742.82
2017-11-14T06:25:43.644Z,101753.62
2017-11-14T06:28:18.456Z,101753.41
2017-11-14T06:30:53.273Z,101759.16
2017-11-14T06:33:28.313Z,101762.23
2017-11-14T06:36:02.989Z,101764.45
2017-11-14T06:38:37.178Z,101730.91
2017-11-14T06:41:12.265Z,101772.48
2017-11-14T06:43:46.998Z,101777.33
2017-11-14T06:46:21.750Z,101776.31
2017-11-14T06:48:57.057Z,101786.12
2017-11-14T06:51:32.319Z,101789.52
2017-11-14T06:54:07.021Z,101787.97
2017-11-14T06:56:41.660Z,101795.58
2017-11-14T06:59:16.421Z,101791.72
2017-11-14T07:01:51.222Z,101784.03
2017-11-14T07:04:26.009Z,101787.08
2017-11-14T07:07:00.753Z,101795.30
2017-11-14T07:09:35.261Z,101790.95
2017-11-14T07:12:10.275Z,101789.45
2017-11-14T07:14:44.876Z,101787.39
2017-11-14T07:17:19.942Z,101787.47
2017-11-14T07:19:55.238Z,101785.59
2017-11-14T07:22:29.914Z,101780.36
2017-11-14T07:25:04.581Z,101783.58
2017-11-14T07:27:39.390Z,101781.70
2017-11-14T07:30:14.490Z,101779.75
2017-11-14T07:32:49.732Z,101771.92
2017-11-14T07:35:24.985Z,101766.89
2017-11-14T07:37:59.832Z,101770.73
2017-11-14T07:40:34.573Z,101773.36
2017-11-14T07:43:09.296Z,101779.83
2017-11-14T07:45:44.033Z,101773.87
2017-11-14T07:48:18.793Z,101778.07
2017-11-14T07:50:53.463Z,101773.41
2017-11-14T07:53:28.188Z,101771.22
2017-11-14T07:56:03.979Z,101773.78
2017-11-14T07:58:38.713Z,101771.24
2017-11-14T08:01:13.557Z,101763.84
2017-11-14T08:03:49.188Z,101764.69
2017-11-14T08:06:24.369Z,101770.81
2017-11-14T08:08:58.873Z,101772.11
2017-11-14T08:11:33.841Z,101779.80
2017-11-14T08:14:08.667Z,101764.70
2017-11-14T08:16:44.144Z,101783.03
2017-11-14T08:19:18.981Z,101776.69
2017-11-14T08:21:53.545Z,101778.02
2017-11-14T08:24:28.436Z,101779.88
2017-11-14T08:27:03.246Z,101787.53
2017-11-14T08:29:38.327Z,101789.64
2017-11-14T08:32:13.418Z,101795.73
2017-11-14T08:34:48.496Z,101793.25
2017-11-14T08:37:23.249Z,101795.28
2017-11-14T08:39:58.657Z,101791.91
2017-11-14T08:42:33.654Z,101796.66
2017-11-14T08:45:09.124Z,101793.02
2017-11-14T08:47:43.933Z,101793.39
2017-11-14T08:50:19.701Z,101795.20
2017-11-14T08:52:54.573Z,101799.87
2017-11-14T08:55:29.539Z,101795.76
2017-11-14T08:58:03.970Z,101797.88
2017-11-14T09:00:38.786Z,101797.54
2017-11-14T09:03:13.577Z,101795.83
2017-11-14T09:05:48.069Z,101795.23
2017-11-14T09:08:22.872Z,101800.84
2017-11-14T09:10:57.601Z,101810.16
2017-11-14T09:13:32.321Z,101805.58
2017-11-14T09:16:07.157Z,101807.10
2017-11-14T09:18:41.809Z,101809.17
2017-11-14T09:21:16.316Z,101817.48
2017-11-14T09:23:51.157Z,101812.51
2017-11-14T09:26:26.325Z,101800.16
2017-11-14T09:29:00.845Z,101795.02
2017-11-14T09:31:36.039Z,101798.84
2017-11-14T09:34:10.553Z,101790.66
2017-11-14T09:36:45.448Z,101791.15
2017-11-14T09:39:20.057Z,101791.35
2017-11-14T09:41:54.865Z,101792.73
2017-11-14T09:44:29.890Z,101800.92
2017-11-14T09:47:04.919Z,101803.06
2017-11-14T09:49:39.670Z,101798.11
2017-11-14T09:52:14.500Z,101804.92
2017-11-14T09:54:49.237Z,101801.67
2017-11-14T09:57:24.167Z,101796.67
2017-11-14T09:59:58.900Z,101796.83
2017-11-14T10:02:33.627Z,101785.13
2017-11-14T10:05:08.366Z,101784.92
2017-11-14T10:07:43.183Z,101781.00
2017-11-14T10:10:17.997Z,101780.48
2017-11-14T10:12:52.797Z,101774.23
2017-11-14T10:15:27.752Z,101778.69
2017-11-14T10:18:02.490Z,101769.05
2017-11-14T10:20:37.401Z,101766.61
2017-11-14T10:23:12.090Z,101757.72
2017-11-14T10:25:46.941Z,101749.19
2017-11-14T10:28:21.708Z,101753.26
2017-11-14T10:30:56.521Z,101739.09
2017-11-14T10:33:31.473Z,101737.63
2017-11-14T10:36:06.297Z,101726.20
2017-11-14T10:38:41.161Z,101738.66
2017-11-14T10:41:15.911Z,101736.20
2017-11-14T10:43:50.506Z,101734.86
2017-11-14T10:46:25.716Z,101734.05
2017-11-14T10:49:00.568Z,101746.83
2017-11-14T10:51:35.661Z,101747.31
2017-11-14T10:54:10.611Z,101749.98
2017-11-14T10:56:45.729Z,101747.97
2017-11-14T10:59:20.720Z,101751.51
2017-11-14T11:01:55.405Z,101745.25
2017-11-14T11:04:30.251Z,101745.69
2017-11-14T11:07:04.993Z,101741.75
2017-11-14T11:09:39.859Z,101717.93
2017-11-14T11:12:14.637Z,101730.61
2017-11-14T11:14:49.609Z,101719.02
2017-11-14T11:17:24.477Z,101725.98
2017-11-14T11:19:59.346Z,101733.55
2017-11-14T11:22:34.097Z,101730.53
2017-11-14T11:25:08.650Z,101737.91
2017-11-14T11:27:43.565Z,101746.13
2017-11-14T11:30:18.405Z,101746.39
2017-11-14T11:32:53.254Z,101743.93
2017-11-14T11:35:27.937Z,101740.72
2017-11-14T11:38:02.854Z,101723.77
2017-11-14T11:40:37.795Z,101727.80
2017-11-14T11:43:12.855Z,101722.53
2017-11-14T11:45:48.469Z,101713.03
2017-11-14T11:48:23.192Z,101712.88
2017-11-14T11:50:58.040Z,101705.30
2017-11-14T11:53:32.616Z,101709.91
2017-11-14T11:56:07.516Z,101718.86
2017-11-14T11:58:42.114Z,101711.45
2017-11-14T12:01:16.957Z,101714.87
2017-11-14T12:03:51.848Z,101709.99
2017-11-14T12:06:26.821Z,101710.16
2017-11-14T12:09:03.028Z,101712.89
2017-11-14T12:11:37.433Z,101708.97
2017-11-14T12:14:12.566Z,101687.61
2017-11-14T12:16:47.460Z,101699.50
2017-11-14T12:19:21.984Z,101702.14
2017-11-14T12:21:56.688Z,101691.30
2017-11-14T12:24:31.460Z,101694.49
2017-11-14T12:27:06.077Z,101692.38
2017-11-14T12:29:40.690Z,101693.72
2017-11-14T12:32:15.313Z,101691.75
2017-11-14T12:34:49.946Z,101693.78
2017-11-14T12:37:24.688Z,101690.50
2017-11-14T12:39:59.864Z,101694.63
2017-11-14T12:42:34.704Z,101682.69
2017-11-14T12:45:09.616Z,101699.76
2017-11-14T12:47:44.637Z,101687.86
2017-11-14T12:50:19.440Z,101691.30
2017-11-14T12:52:54.298Z,101685.93
2017-11-14T12:55:28.612Z,101700.84
2017-11-14T12:58:03.664Z,101699.16
2017-11-14T13:00:38.349Z,101706.17
2017-11-14T13:03:12.809Z,101702.73
2017-11-14T13:05:47.311Z,101701.40
2017-11-14T13:08:22.654Z,101702.05
2017-11-14T13:10:57.198Z,101705.38
2017-11-14T13:13:31.915Z,101701.24
2017-11-14T13:16:06.849Z,101693.89
2017-11-14T13:18:41.405Z,101686.09
2017-11-14T13:21:15.808Z,101687.97
2017-11-14T13:23:50.705Z,101686.88
2017-11-14T13:26:25.388Z,101697.56
2017-11-14T13:29:00.965Z,101690.30
2017-11-14T13:31:35.548Z,101688.47
2017-11-14T13:34:10.517Z,101688.52
2017-11-14T13:36:45.778Z,101692.45
2017-11-14T13:39:20.651Z,101684.84
2017-11-14T13:41:55.559Z,101695.63
2017-11-14T13:44:30.649Z,101686.23
2017-11-14T13:47:04.945Z,101697.87
2017-11-14T13:49:40.353Z,101695.58
2017-11-14T13:52:15.405Z,101694.68
2017-11-14T13:54:50.449Z,101696.48
2017-11-14T13:57:25.284Z,101696.83
2017-11-14T14:00:00.283Z,101693.40
2017-11-14T14:02:35.361Z,101700.81
2017-11-14T14:05:09.881Z,101703.83
2017-11-14T14:07:45.245Z,101706.12
2017-11-14T14:10:20.145Z,101693.70
2017-11-14T14:12:54.995Z,101707.13
2017-11-14T14:15:29.901Z,101710.90
2017-11-14T14:18:04.105Z,101705.83
2017-11-14T14:20:38.630Z,101705.67
2017-11-14T14:23:13.617Z,101701.50
2017-11-14T14:25:48.713Z,101702.84
2017-11-14T14:28:23.172Z,101698.81
2017-11-14T14:30:58.377Z,101707.77
2017-11-14T14:33:33.630Z,101708.77
2017-11-14T14:36:08.553Z,101705.27
2017-11-14T14:38:42.769Z,101706.97
2017-11-14T14:41:17.736Z,101705.88
2017-11-14T14:43:52.692Z,101707.47
2017-11-14T14:46:27.413Z,101700.44
2017-11-14T14:49:02.325Z,101703.98
2017-11-14T14:51:37.188Z,101713.13
2017-11-14T14:54:11.965Z,101710.73
2017-11-14T14:56:46.612Z,101720.53
2017-11-14T14:59:21.538Z,101720.98
2017-11-14T15:01:56.344Z,101730.92
2017-11-14T15:04:31.164Z,101730.62
2017-11-14T15:07:06.157Z,101732.50
2017-11-14T15:09:40.821Z,101728.43
2017-11-14T15:12:15.940Z,101729.92
2017-11-14T15:14:50.761Z,101731.97
2017-11-14T15:17:25.851Z,101726.45
2017-11-14T15:20:00.612Z,101734.48
2017-11-14T15:22:35.548Z,101737.86
2017-11-14T15:25:10.525Z,101729.47
2017-11-14T15:27:45.382Z,101740.84
2017-11-14T15:30:19.770Z,101738.24
2017-11-14T15:32:55.141Z,101740.62
2017-11-14T15:35:29.986Z,101734.06
2017-11-14T15:38:04.513Z,101737.87
2017-11-14T15:40:40.033Z,101736.81
2017-11-14T15:43:15.053Z,101734.53
2017-11-14T15:45:50.039Z,101733.64
2017-11-14T15:48:24.381Z,101736.13
2017-11-14T15:50:59.310Z,101738.67
2017-11-14T15:53:34.240Z,101744.88
2017-11-14T15:56:09.037Z,101735.53
2017-11-14T15:58:43.540Z,101743.63
2017-11-14T16:01:18.592Z,101747.80
2017-11-14T16:03:53.245Z,101738.41
2017-11-14T16:06:28.049Z,101744.91
2017-11-14T16:09:02.902Z,101737.59
2017-11-14T16:11:38.114Z,101734.48
2017-11-14T16:14:12.412Z,101742.47
2017-11-14T16:16:47.284Z,101744.80
2017-11-14T16:19:22.448Z,101753.94
2017-11-14T16:21:57.024Z,101738.66
2017-11-14T16:24:32.183Z,101760.30
2017-11-14T16:27:07.005Z,101762.09
2017-11-14T16:29:41.651Z,101760.92
2017-11-14T16:32:16.765Z,101768.04
2017-11-14T16:34:51.272Z,101761.73
2017-11-14T16:37:26.676Z,101764.77
2017-11-14T16:40:01.582Z,101771.42
2017-11-14T16:42:36.397Z,101765.05
2017-11-14T16:45:11.061Z,101765.76
2017-11-14T16:47:45.674Z,101765.27
2017-11-14T16:50:20.561Z,101768.13
2017-11-14T16:52:57.891Z,101777.97
2017-11-14T16:55:32.741Z,101773.67
2017-11-14T16:58:07.840Z,101775.95
2017-11-14T17:00:42.570Z,101778.28
2017-11-14T17:03:17.253Z,101785.42
2017-11-14T17:05:51.813Z,101775.00
2017-11-14T17:08:26.980Z,101782.65
2017-11-14T17:11:01.762Z,101781.00
2017-11-14T17:13:36.965Z,101789.94
2017-11-14T17:16:11.353Z,101794.09
2017-11-14T17:18:46.148Z,101800.13
2017-11-14T17:21:21.268Z,101802.05
2017-11-14T17:23:56.301Z,101798.88
2017-11-14T17:26:31.641Z,101797.54
2017-11-14T17:29:06.856Z,101804.19
2017-11-14T17:31:41.773Z,101798.06
2017-11-14T17:34:16.746Z,101793.86
2017-11-14T17:36:51.562Z,101794.31
2017-11-14T17:39:26.490Z,101801.56
2017-11-14T17:42:01.521Z,101791.99
2017-11-14T17:44:36.533Z,101799.77
2017-11-14T17:47:12.120Z,101812.02
2017-11-14T17:49:47.162Z,101816.08
2017-11-14T17:52:22.376Z,101813.22
2017-11-14T17:54:57.345Z,101816.20
2017-11-14T17:57:32.391Z,101820.59
2017-11-14T18:00:07.216Z,101820.52
2017-11-14T18:02:42.492Z,101823.64
2017-11-14T18:05:17.770Z,101823.77
2017-11-14T18:07:53.096Z,101812.50
2017-11-14T18:10:28.184Z,101824.26
2017-11-14T18:13:03.341Z,101824.58
2017-11-14T18:15:38.008Z,101828.20
2017-11-14T18:18:13.449Z,101826.31
2017-11-14T18:20:48.625Z,101833.28
2017-11-14T18:23:23.542Z,101837.45
2017-11-14T18:25:58.268Z,101836.33
2017-11-14T18:28:33.254Z,101838.44
2017-11-14T18:31:08.266Z,101837.80
2017-11-14T18:33:43.296Z,101838.92
2017-11-14T18:36:18.417Z,101838.42
2017-11-14T18:38:53.741Z,101839.68
2017-11-14T18:41:28.688Z,101838.70
2017-11-14T18:44:03.896Z,101841.33
2017-11-14T18:46:38.732Z,101845.30
2017-11-14T18:49:13.505Z,101839.63
2017-11-14T18:51:48.308Z,101843.89
2017-11-14T18:54:23.478Z,101849.61
2017-11-14T18:56:58.973Z,101854.02
2017-11-14T18:59:33.764Z,101862.93
2017-11-14T19:05:05.485Z,101851.94
2017-11-14T19:07:40.553Z,101849.87
2017-11-14T19:10:15.602Z,101852.96
2017-11-14T19:12:50.535Z,101856.09
2017-11-14T19:15:25.868Z,101862.92
2017-11-14T19:18:00.324Z,101857.92
2017-11-14T19:20:35.165Z,101862.30
2017-11-14T19:23:10.355Z,101855.15
2017-11-14T19:25:45.464Z,101860.38
2017-11-14T19:28:20.633Z,101860.95
2017-11-14T19:30:55.620Z,101855.28
2017-11-14T19:33:30.580Z,101862.03
2017-11-14T19:36:05.527Z,101859.80
2017-11-14T19:38:40.565Z,101860.61
2017-11-14T19:41:15.508Z,101861.77
2017-11-14T19:43:50.444Z,101864.49
2017-11-14T19:46:25.368Z,101867.13
2017-11-14T19:49:00.085Z,101864.49
2017-11-14T19:51:34.952Z,101878.58
2017-11-14T19:54:10.169Z,101875.23
2017-11-14T19:56:44.809Z,101879.16
2017-11-14T19:59:19.825Z,101877.19
2017-11-14T20:01:54.769Z,101883.45
2017-11-14T20:04:29.603Z,101872.54
2017-11-14T20:07:04.553Z,101889.31
2017-11-14T20:09:39.496Z,101888.29
2017-11-14T20:12:14.119Z,101893.20
2017-11-14T20:14:48.681Z,101890.83
2017-11-14T20:17:23.745Z,101891.59
2017-11-14T20:19:58.457Z,101890.92
2017-11-14T20:22:33.169Z,101894.77
2017-11-14T20:25:07.838Z,101896.64
2017-11-14T20:27:42.813Z,101895.26
2017-11-14T20:30:18.242Z,101897.23
2017-11-14T20:32:53.743Z,101895.20
2017-11-14T20:35:28.618Z,101891.05
2017-11-14T20:38:03.761Z,101895.61
2017-11-14T20:40:38.987Z,101898.52
2017-11-14T20:43:13.816Z,101896.06
2017-11-14T20:45:48.938Z,101894.67
2017-11-14T20:48:23.749Z,101895.98
2017-11-14T20:50:58.533Z,101903.97
2017-11-14T20:53:33.554Z,101910.64
2017-11-14T20:56:08.377Z,101909.84
2017-11-14T20:58:43.320Z,101907.11
2017-11-14T21:01:18.389Z,101913.55
2017-11-14T21:03:53.193Z,101909.66
2017-11-14T21:06:28.177Z,101904.73
2017-11-14T21:09:02.961Z,101904.16
2017-11-14T21:11:37.968Z,101903.88
2017-11-14T21:14:12.885Z,101899.85
2017-11-14T21:16:48.068Z,101902.23
2017-11-14T21:19:22.981Z,101901.73
2017-11-14T21:21:57.778Z,101889.04
2017-11-14T21:24:32.125Z,101903.34
2017-11-14T21:27:06.905Z,101905.67
2017-11-14T21:29:41.897Z,101901.29
2017-11-14T21:32:16.858Z,101905.76
2017-11-14T21:34:51.784Z,101905.08
2017-11-14T21:37:26.633Z,101903.83
2017-11-14T21:40:01.828Z,101901.05
2017-11-14T21:42:36.513Z,101909.95
2017-11-14T21:45:11.591Z,101902.94
2017-11-14T21:47:46.585Z,101892.07
2017-11-14T21:50:21.577Z,101902.09
2017-11-14T21:52:56.460Z,101900.16
2017-11-14T21:55:31.250Z,101899.53
2017-11-14T21:58:06.045Z,101903.38
2017-11-14T22:00:40.605Z,101898.69
2017-11-14T22:03:15.855Z,101895.83
2017-11-14T22:05:50.788Z,101906.11
2017-11-14T22:08:25.606Z,101911.93
2017-11-14T22:11:00.524Z,101910.55
2017-11-14T22:13:35.365Z,101907.81
2017-11-14T22:16:10.209Z,101904.06
2017-11-14T22:18:45.147Z,101917.03
2017-11-14T22:21:20.183Z,101920.66
2017-11-14T22:23:55.105Z,101920.75
2017-11-14T22:26:29.989Z,101919.54
2017-11-14T22:29:05.076Z,101924.37
2017-11-14T22:31:39.896Z,101921.23
2017-11-14T22:34:14.696Z,101925.80
2017-11-14T22:36:50.049Z,101921.33
2017-11-14T22:39:24.469Z,101926.83
2017-11-14T22:41:59.144Z,101921.28
2017-11-14T22:44:34.381Z,101925.94
2017-11-14T22:47:09.315Z,101924.59
2017-11-14T22:49:44.345Z,101931.66
2017-11-14T22:52:19.168Z,101930.28
2017-11-14T22:54:54.194Z,101924.68
2017-11-14T22:57:28.878Z,101926.65
2017-11-14T23:00:03.344Z,101930.41
2017-11-14T23:02:38.460Z,101887.13
2017-11-14T23:05:13.534Z,101930.91
2017-11-14T23:07:48.453Z,101933.49
2017-11-14T23:10:23.284Z,101936.17
2017-11-14T23:12:58.353Z,101942.00
2017-11-14T23:15:33.198Z,101938.59
2017-11-14T23:18:08.190Z,101942.83
2017-11-14T23:20:43.101Z,101941.23
2017-11-14T23:23:17.866Z,101941.19
2017-11-14T23:25:52.617Z,101946.88
2017-11-14T23:28:27.429Z,101948.03
2017-11-14T23:31:02.229Z,101941.23
2017-11-14T23:33:37.289Z,101947.50
2017-11-14T23:36:12.186Z,101951.16
2017-11-14T23:38:47.220Z,101946.86
2017-11-14T23:41:21.645Z,101946.52
2017-11-14T23:43:56.377Z,101947.41
2017-11-14T23:46:31.355Z,101949.19
2017-11-14T23:49:06.354Z,101952.73
2017-11-14T23:51:41.502Z,101946.52
2017-11-14T23:54:16.861Z,101949.69
2017-11-14T23:56:51.568Z,101947.50
2017-11-14T23:59:26.510Z,101955.86
